createdAt,value
2018-12-31T00:02:03.784Z,9.13
2018-12-31T00:04:32.606Z,9.57
2018-12-31T00:07:01.424Z,9.03
2018-12-31T00:09:30.637Z,9.63
2018-12-31T00:11:59.753Z,10.20
2018-12-31T00:14:28.633Z,4.90
2018-12-31T00:16:57.586Z,8.03
2018-12-31T00:19:26.652Z,8.47
2018-12-31T00:21:55.524Z,8.37
2018-12-31T00:24:24.394Z,6.57
2018-12-31T00:26:53.260Z,5.65
2018-12-31T00:29:22.084Z,10.07
2018-12-31T00:31:51.119Z,8.17
2018-12-31T00:34:20.448Z,7.93
2018-12-31T00:36:49.513Z,6.17
2018-12-31T00:39:18.395Z,7.57
2018-12-31T00:41:47.213Z,6.47
2018-12-31T00:44:16.030Z,10.83
2018-12-31T00:46:44.849Z,7.82
2018-12-31T00:49:13.680Z,5.80
2018-12-31T00:51:42.550Z,7.23
2018-12-31T00:54:11.375Z,8.77
2018-12-31T00:56:40.187Z,5.57
2018-12-31T00:59:09.019Z,5.55
2018-12-31T01:01:37.807Z,8.00
2018-12-31T01:04:06.756Z,8.83
2018-12-31T01:06:35.649Z,5.97
2018-12-31T01:09:05.771Z,6.43
2018-12-31T01:11:34.663Z,5.30
2018-12-31T01:14:03.759Z,5.65
2018-12-31T01:16:32.719Z,5.92
2018-12-31T01:19:01.563Z,5.83
2018-12-31T01:21:30.339Z,5.07
2018-12-31T01:23:59.231Z,6.10
2018-12-31T01:26:28.028Z,5.90
2018-12-31T01:28:56.916Z,8.00
2018-12-31T01:31:25.766Z,5.40
2018-12-31T01:33:54.596Z,6.50
2018-12-31T01:36:23.407Z,3.30
2018-12-31T01:38:52.273Z,3.90
2018-12-31T01:41:21.162Z,3.73
2018-12-31T01:43:49.983Z,3.73
2018-12-31T01:46:18.883Z,7.90
2018-12-31T01:48:47.703Z,3.40
2018-12-31T01:51:16.580Z,6.50
2018-12-31T01:53:45.463Z,4.63
2018-12-31T01:56:14.278Z,4.47
2018-12-31T01:58:43.091Z,3.57
2018-12-31T02:01:12.078Z,4.20
2018-12-31T02:03:40.902Z,3.97
2018-12-31T02:06:09.719Z,4.07
2018-12-31T02:08:38.596Z,2.93
2018-12-31T02:11:07.477Z,2.67
2018-12-31T02:13:36.395Z,2.57
2018-12-31T02:16:05.289Z,2.30
2018-12-31T02:18:34.281Z,3.07
2018-12-31T02:21:03.172Z,4.10
2018-12-31T02:23:32.053Z,4.03
2018-12-31T02:26:00.865Z,5.50
2018-12-31T02:28:29.660Z,2.60
2018-12-31T02:31:00.350Z,3.67
2018-12-31T02:33:29.147Z,3.85
2018-12-31T02:35:58.038Z,4.27
2018-12-31T02:38:26.827Z,3.07
2018-12-31T02:40:55.648Z,3.83
2018-12-31T02:43:24.559Z,4.80
2018-12-31T02:45:53.399Z,4.03
2018-12-31T02:48:22.205Z,2.63
2018-12-31T02:50:51.098Z,3.90
2018-12-31T02:53:19.911Z,4.73
2018-12-31T02:55:48.713Z,5.05
2018-12-31T02:58:17.596Z,3.83
2018-12-31T03:00:46.482Z,3.50
2018-12-31T03:03:15.302Z,3.77
2018-12-31T03:05:44.441Z,5.30
2018-12-31T03:08:13.358Z,5.15
2018-12-31T03:10:42.200Z,8.50
2018-12-31T03:13:11.015Z,4.60
2018-12-31T03:15:39.845Z,3.00
2018-12-31T03:18:08.824Z,3.70
2018-12-31T03:20:37.732Z,4.40
2018-12-31T03:23:06.618Z,3.63
2018-12-31T03:25:35.504Z,4.00
2018-12-31T03:28:04.553Z,3.20
2018-12-31T03:30:33.370Z,4.50
2018-12-31T03:33:02.531Z,3.80
2018-12-31T03:35:31.440Z,3.20
2018-12-31T03:38:00.257Z,2.87
2018-12-31T03:40:29.041Z,3.63
2018-12-31T03:42:57.967Z,3.25
2018-12-31T03:45:26.824Z,2.37
2018-12-31T03:47:55.812Z,5.03
2018-12-31T03:50:24.703Z,2.47
2018-12-31T03:52:53.584Z,2.13
2018-12-31T03:55:22.482Z,1.93
2018-12-31T03:57:51.371Z,6.13
2018-12-31T04:00:20.197Z,2.97
2018-12-31T04:02:49.043Z,3.30
2018-12-31T04:05:17.894Z,2.37
2018-12-31T04:07:52.974Z,2.93
2018-12-31T04:10:17.465Z,2.07
2018-12-31T04:12:46.479Z,2.35
2018-12-31T04:15:15.428Z,4.90
2018-12-31T04:17:44.384Z,2.47
2018-12-31T04:20:13.498Z,1.50
2018-12-31T04:22:42.489Z,4.10
2018-12-31T04:25:11.284Z,2.40
2018-12-31T04:27:40.093Z,2.47
2018-12-31T04:30:09.238Z,3.45
2018-12-31T04:32:38.309Z,2.03
2018-12-31T04:35:07.377Z,1.90
2018-12-31T04:37:36.347Z,1.90
2018-12-31T04:40:05.322Z,2.40
2018-12-31T04:42:34.318Z,1.37
2018-12-31T04:45:03.129Z,1.93
2018-12-31T04:47:32.071Z,3.40
2018-12-31T04:50:00.870Z,2.73
2018-12-31T04:52:29.801Z,1.60
2018-12-31T04:54:58.619Z,1.92
2018-12-31T04:57:27.651Z,3.47
2018-12-31T04:59:56.480Z,1.30
2018-12-31T05:02:25.462Z,1.97
2018-12-31T05:04:54.261Z,1.97
2018-12-31T05:07:23.071Z,1.65
2018-12-31T05:09:51.885Z,1.70
2018-12-31T05:12:20.707Z,2.10
2018-12-31T05:14:49.617Z,1.70
2018-12-31T05:17:18.468Z,2.50
2018-12-31T05:19:47.287Z,2.10
2018-12-31T05:22:16.111Z,2.10
2018-12-31T05:24:44.910Z,2.13
2018-12-31T05:27:13.711Z,1.80
2018-12-31T05:29:42.519Z,3.77
2018-12-31T05:32:11.320Z,2.43
2018-12-31T05:34:40.161Z,2.10
2018-12-31T05:37:08.974Z,2.17
2018-12-31T05:39:37.795Z,2.55
2018-12-31T05:42:06.678Z,2.30
2018-12-31T05:44:35.518Z,2.70
2018-12-31T05:47:04.409Z,3.40
2018-12-31T05:49:33.238Z,3.27
2018-12-31T05:52:02.040Z,2.67
2018-12-31T05:54:30.915Z,2.37
2018-12-31T05:56:59.713Z,2.40
2018-12-31T05:59:28.562Z,2.20
2018-12-31T06:01:57.529Z,2.70
2018-12-31T06:04:26.424Z,2.83
2018-12-31T06:06:55.233Z,8.63
2018-12-31T06:09:24.046Z,2.40
2018-12-31T06:11:52.979Z,2.40
2018-12-31T06:14:21.872Z,2.40
2018-12-31T06:16:50.816Z,2.77
2018-12-31T06:19:20.264Z,4.20
2018-12-31T06:21:49.057Z,3.90
2018-12-31T06:24:18.010Z,2.50
2018-12-31T06:26:46.900Z,8.80
2018-12-31T06:29:15.792Z,3.60
2018-12-31T06:31:44.660Z,4.90
2018-12-31T06:34:13.561Z,2.98
2018-12-31T06:36:42.434Z,1.80
2018-12-31T06:39:11.391Z,4.10
2018-12-31T06:41:40.269Z,2.07
2018-12-31T06:44:09.193Z,2.60
2018-12-31T06:46:37.983Z,6.30
2018-12-31T06:49:06.865Z,10.10
2018-12-31T06:51:35.839Z,9.17
2018-12-31T06:54:04.726Z,13.73
2018-12-31T06:56:33.618Z,7.40
2018-12-31T06:59:02.416Z,6.30
2018-12-31T07:01:31.260Z,3.20
2018-12-31T07:04:00.145Z,2.37
2018-12-31T07:06:28.984Z,2.10
2018-12-31T07:08:57.957Z,2.43
2018-12-31T07:11:26.772Z,2.40
2018-12-31T07:13:55.547Z,2.50
2018-12-31T07:16:24.359Z,2.80
2018-12-31T07:18:53.166Z,2.43
2018-12-31T07:21:22.258Z,1.60
2018-12-31T07:23:51.188Z,2.02
2018-12-31T07:26:20.003Z,3.73
2018-12-31T07:28:48.891Z,1.70
2018-12-31T07:31:17.788Z,2.33
2018-12-31T07:33:46.625Z,2.40
2018-12-31T07:36:15.426Z,4.47
2018-12-31T07:38:44.297Z,20.60
2018-12-31T07:41:13.113Z,17.73
2018-12-31T07:43:41.936Z,6.03
2018-12-31T07:46:10.873Z,3.45
2018-12-31T07:48:39.677Z,2.50
2018-12-31T07:51:08.682Z,2.80
2018-12-31T07:53:37.518Z,4.83
2018-12-31T07:56:06.420Z,1.67
2018-12-31T07:58:35.576Z,2.50
2018-12-31T08:01:04.521Z,2.95
2018-12-31T08:03:33.400Z,2.55
2018-12-31T08:06:02.263Z,4.00
2018-12-31T08:08:31.157Z,2.17
2018-12-31T08:11:00.031Z,2.97
2018-12-31T08:13:28.851Z,2.53
2018-12-31T08:15:57.662Z,3.43
2018-12-31T08:18:26.605Z,2.33
2018-12-31T08:20:55.498Z,2.40
2018-12-31T08:23:24.321Z,1.90
2018-12-31T08:25:53.221Z,2.42
2018-12-31T08:28:22.019Z,1.50
2018-12-31T08:30:50.899Z,2.27
2018-12-31T08:33:19.707Z,2.00
2018-12-31T08:35:48.537Z,2.35
2018-12-31T08:38:17.445Z,3.27
2018-12-31T08:40:46.264Z,2.33
2018-12-31T08:43:15.074Z,2.47
2018-12-31T08:45:43.976Z,3.02
2018-12-31T08:48:12.788Z,2.63
2018-12-31T08:50:41.600Z,2.00
2018-12-31T08:53:10.506Z,3.60
2018-12-31T08:55:39.409Z,2.67
2018-12-31T08:58:08.315Z,4.40
2018-12-31T09:00:37.246Z,2.23
2018-12-31T09:03:06.129Z,3.43
2018-12-31T09:05:34.944Z,3.60
2018-12-31T09:08:03.822Z,5.67
2018-12-31T09:10:32.696Z,3.43
2018-12-31T09:13:01.499Z,5.33
2018-12-31T09:15:30.395Z,4.37
2018-12-31T09:17:59.219Z,2.40
2018-12-31T09:20:28.481Z,3.07
2018-12-31T09:22:57.371Z,3.30
2018-12-31T09:25:26.646Z,3.80
2018-12-31T09:27:55.605Z,4.50
2018-12-31T09:30:24.415Z,1.90
2018-12-31T09:32:53.388Z,2.93
2018-12-31T09:35:22.279Z,2.70
2018-12-31T09:37:51.104Z,1.97
2018-12-31T09:40:19.902Z,2.75
2018-12-31T09:42:48.745Z,2.80
2018-12-31T09:45:17.640Z,5.43
2018-12-31T09:47:46.491Z,3.27
2018-12-31T09:50:15.361Z,4.05
2018-12-31T09:52:44.172Z,3.33
2018-12-31T09:55:13.254Z,2.50
2018-12-31T09:57:42.141Z,4.93
2018-12-31T10:00:11.107Z,2.67
2018-12-31T10:02:39.991Z,3.42
2018-12-31T10:05:08.956Z,2.70
2018-12-31T10:07:37.843Z,2.23
2018-12-31T10:10:06.717Z,2.50
2018-12-31T10:12:35.627Z,3.20
2018-12-31T10:15:05.429Z,2.90
2018-12-31T10:17:34.345Z,2.17
2018-12-31T10:20:03.235Z,1.87
2018-12-31T10:22:32.071Z,2.23
2018-12-31T10:25:00.868Z,2.33
2018-12-31T10:27:29.778Z,2.03
2018-12-31T10:29:59.194Z,2.27
2018-12-31T10:32:28.046Z,2.45
2018-12-31T10:34:56.861Z,2.63
2018-12-31T10:37:25.750Z,2.70
2018-12-31T10:39:54.555Z,2.47
2018-12-31T10:42:23.411Z,2.93
2018-12-31T10:44:52.212Z,1.70
2018-12-31T10:47:21.108Z,2.10
2018-12-31T10:49:50.056Z,1.97
2018-12-31T10:52:18.943Z,2.25
2018-12-31T10:54:47.741Z,2.30
2018-12-31T10:57:17.873Z,6.97
2018-12-31T10:59:46.846Z,3.20
2018-12-31T11:02:15.665Z,4.87
2018-12-31T11:04:44.480Z,2.20
2018-12-31T11:07:13.371Z,3.30
2018-12-31T11:09:42.203Z,4.23
2018-12-31T11:12:11.075Z,4.78
2018-12-31T11:14:40.044Z,2.87
2018-12-31T11:17:08.852Z,2.75
2018-12-31T11:19:37.662Z,3.83
2018-12-31T11:22:06.478Z,2.80
2018-12-31T11:24:35.302Z,2.47
2018-12-31T11:27:04.263Z,3.30
2018-12-31T11:29:33.087Z,2.77
2018-12-31T11:32:01.894Z,2.70
2018-12-31T11:34:30.721Z,2.98
2018-12-31T11:36:59.688Z,4.20
2018-12-31T11:39:28.505Z,2.97
2018-12-31T11:41:58.131Z,3.53
2018-12-31T11:44:27.181Z,3.65
2018-12-31T11:46:56.086Z,4.23
2018-12-31T11:49:24.970Z,5.80
2018-12-31T11:51:53.781Z,4.33
2018-12-31T11:54:22.719Z,2.52
2018-12-31T11:56:51.624Z,2.45
2018-12-31T11:59:20.618Z,2.20
2018-12-31T12:01:49.642Z,2.33
2018-12-31T12:04:18.435Z,1.60
2018-12-31T12:06:47.310Z,3.30
2018-12-31T12:09:16.141Z,2.45
2018-12-31T12:11:44.950Z,3.13
2018-12-31T12:14:13.761Z,2.70
2018-12-31T12:16:42.586Z,2.72
2018-12-31T12:19:11.460Z,2.63
2018-12-31T12:21:40.261Z,2.33
2018-12-31T12:24:09.081Z,2.23
2018-12-31T12:26:37.874Z,2.95
2018-12-31T12:29:06.684Z,2.73
2018-12-31T12:31:35.721Z,2.90
2018-12-31T12:34:04.650Z,2.47
2018-12-31T12:36:33.480Z,3.30
2018-12-31T12:39:02.373Z,4.03
2018-12-31T12:41:31.246Z,5.50
2018-12-31T12:44:00.256Z,4.20
2018-12-31T12:46:29.216Z,2.20
2018-12-31T12:48:58.046Z,3.23
2018-12-31T12:51:26.921Z,2.63
2018-12-31T12:53:55.715Z,6.03
2018-12-31T12:56:24.835Z,2.23
2018-12-31T12:58:53.836Z,3.67
2018-12-31T13:01:22.722Z,4.00
2018-12-31T13:03:51.528Z,4.78
2018-12-31T13:06:20.342Z,2.60
2018-12-31T13:08:49.230Z,2.23
2018-12-31T13:11:18.192Z,2.90
2018-12-31T13:13:47.012Z,3.58
2018-12-31T13:16:15.902Z,3.23
2018-12-31T13:18:44.704Z,3.30
2018-12-31T13:21:13.608Z,3.97
2018-12-31T13:23:42.502Z,3.62
2018-12-31T13:26:11.415Z,3.43
2018-12-31T13:28:40.199Z,3.30
2018-12-31T13:31:09.017Z,3.33
2018-12-31T13:33:37.924Z,3.40
2018-12-31T13:36:07.393Z,3.45
2018-12-31T13:38:36.455Z,3.25
2018-12-31T13:41:05.516Z,3.58
2018-12-31T13:43:34.358Z,5.30
2018-12-31T13:46:03.523Z,4.20
2018-12-31T13:48:32.355Z,3.10
2018-12-31T13:51:01.163Z,3.93
2018-12-31T13:53:31.485Z,4.40
2018-12-31T13:56:00.459Z,3.57
2018-12-31T13:58:29.280Z,4.73
2018-12-31T14:00:58.099Z,4.62
2018-12-31T14:03:27.067Z,3.10
2018-12-31T14:05:56.042Z,4.07
2018-12-31T14:08:24.866Z,5.33
2018-12-31T14:10:53.681Z,2.80
2018-12-31T14:13:22.566Z,4.97
2018-12-31T14:15:51.390Z,4.13
2018-12-31T14:18:20.213Z,3.50
2018-12-31T14:20:49.094Z,10.40
2018-12-31T14:23:17.941Z,7.73
2018-12-31T14:25:46.911Z,5.40
2018-12-31T14:28:15.741Z,3.70
2018-12-31T14:30:44.720Z,4.17
2018-12-31T14:33:13.548Z,3.30
2018-12-31T14:35:45.960Z,4.30
2018-12-31T14:38:12.985Z,5.40
2018-12-31T14:40:41.836Z,4.60
2018-12-31T14:43:10.660Z,6.10
2018-12-31T14:45:39.619Z,7.20
2018-12-31T14:48:08.428Z,6.00
2018-12-31T14:50:37.304Z,5.30
2018-12-31T14:53:06.196Z,5.87
2018-12-31T14:55:35.080Z,14.20
2018-12-31T14:58:03.903Z,8.17
2018-12-31T15:00:32.783Z,5.70
2018-12-31T15:03:01.622Z,10.77
2018-12-31T15:05:30.575Z,6.10
2018-12-31T15:07:59.475Z,4.60
2018-12-31T15:10:28.355Z,4.80
2018-12-31T15:12:57.184Z,6.90
2018-12-31T15:15:26.023Z,4.83
2018-12-31T15:17:54.873Z,8.13
2018-12-31T15:20:23.867Z,6.73
2018-12-31T15:22:52.746Z,8.77
2018-12-31T15:25:21.944Z,7.33
2018-12-31T15:27:51.173Z,5.87
2018-12-31T15:30:20.343Z,6.07
2018-12-31T15:32:49.443Z,5.13
2018-12-31T15:35:18.356Z,5.50
2018-12-31T15:37:47.166Z,7.63
2018-12-31T15:40:16.118Z,6.97
2018-12-31T15:42:45.068Z,4.43
2018-12-31T15:45:13.880Z,8.90
2018-12-31T15:47:43.957Z,5.73
2018-12-31T15:50:13.039Z,5.67
2018-12-31T15:52:42.047Z,6.50
2018-12-31T15:55:11.389Z,6.83
2018-12-31T15:57:40.208Z,6.40
2018-12-31T16:00:10.445Z,6.57
2018-12-31T16:02:39.266Z,10.00
2018-12-31T16:05:08.981Z,9.83
2018-12-31T16:07:45.390Z,8.40
2018-12-31T16:10:08.706Z,9.73
2018-12-31T16:12:37.726Z,10.77
2018-12-31T16:15:08.735Z,6.07
2018-12-31T16:17:37.625Z,6.93
2018-12-31T16:20:06.922Z,5.70
2018-12-31T16:22:35.726Z,6.00
2018-12-31T16:25:04.802Z,5.57
2018-12-31T16:27:33.605Z,10.70
2018-12-31T16:30:02.495Z,12.80
2018-12-31T16:32:31.291Z,7.92
2018-12-31T16:35:00.213Z,9.57
2018-12-31T16:37:29.053Z,7.33
2018-12-31T16:39:57.942Z,8.00
2018-12-31T16:42:26.744Z,8.13
2018-12-31T16:44:55.685Z,9.60
2018-12-31T16:47:24.519Z,9.20
2018-12-31T16:49:53.374Z,11.40
2018-12-31T16:52:23.336Z,12.40
2018-12-31T16:54:52.082Z,12.27
2018-12-31T16:57:20.890Z,11.13
2018-12-31T16:59:49.751Z,13.72
2018-12-31T17:02:18.580Z,14.07
2018-12-31T17:04:47.408Z,13.30
2018-12-31T17:07:16.226Z,10.87
2018-12-31T17:09:45.041Z,13.23
2018-12-31T17:12:13.940Z,9.47
2018-12-31T17:14:43.740Z,8.90
2018-12-31T17:17:13.842Z,8.88
2018-12-31T17:19:42.650Z,9.30
2018-12-31T17:22:11.454Z,10.77
2018-12-31T17:24:40.266Z,7.90
2018-12-31T17:27:09.138Z,13.03
2018-12-31T17:29:38.253Z,11.83
2018-12-31T17:32:07.069Z,8.43
2018-12-31T17:34:35.942Z,9.20
2018-12-31T17:37:04.818Z,6.00
2018-12-31T17:39:33.657Z,10.87
2018-12-31T17:42:09.484Z,10.87
2018-12-31T17:44:33.547Z,7.67
2018-12-31T17:47:02.481Z,9.40
2018-12-31T17:49:31.497Z,8.27
2018-12-31T17:52:00.408Z,11.40
2018-12-31T17:54:29.665Z,8.10
2018-12-31T17:56:58.559Z,15.57
2018-12-31T17:59:27.376Z,14.70
2018-12-31T18:01:56.365Z,19.47
2018-12-31T18:04:25.184Z,23.90
2018-12-31T18:06:54.019Z,31.50
2018-12-31T18:09:22.857Z,15.10
2018-12-31T18:11:51.757Z,16.87
2018-12-31T18:14:20.593Z,39.97
2018-12-31T18:16:49.480Z,89.60
2018-12-31T18:19:18.536Z,30.37
2018-12-31T18:21:47.702Z,25.63
2018-12-31T18:24:16.859Z,15.70
2018-12-31T18:26:45.730Z,13.18
2018-12-31T18:29:14.634Z,22.10
2018-12-31T18:31:43.526Z,24.20
2018-12-31T18:34:12.411Z,29.00
2018-12-31T18:36:41.239Z,29.17
2018-12-31T18:39:10.127Z,38.10
2018-12-31T18:41:39.038Z,31.07
2018-12-31T18:44:08.077Z,25.73
2018-12-31T18:46:37.337Z,25.10
2018-12-31T18:49:06.296Z,14.25
2018-12-31T18:51:35.231Z,20.10
2018-12-31T18:54:04.123Z,61.57
2018-12-31T18:56:32.951Z,50.37
2018-12-31T18:59:01.789Z,41.83
2018-12-31T19:01:30.693Z,31.30
2018-12-31T19:03:59.584Z,20.30
2018-12-31T19:06:28.407Z,17.73
2018-12-31T19:08:57.226Z,22.13
2018-12-31T19:11:26.337Z,16.90
2018-12-31T19:13:55.175Z,20.10
2018-12-31T19:16:24.014Z,23.40
2018-12-31T19:18:53.245Z,27.20
2018-12-31T19:21:22.162Z,23.43
2018-12-31T19:23:51.261Z,19.67
2018-12-31T19:26:20.206Z,14.17
2018-12-31T19:28:49.097Z,13.50
2018-12-31T19:31:17.924Z,19.83
2018-12-31T19:33:46.754Z,8.85
2018-12-31T19:36:15.569Z,11.57
2018-12-31T19:38:44.396Z,19.17
2018-12-31T19:41:13.231Z,23.43
2018-12-31T19:43:42.053Z,19.40
2018-12-31T19:46:10.878Z,22.23
2018-12-31T19:48:39.794Z,20.60
2018-12-31T19:51:08.637Z,17.50
2018-12-31T19:53:37.786Z,19.63
2018-12-31T19:56:06.941Z,26.13
2018-12-31T19:58:36.018Z,15.53
2018-12-31T20:01:06.343Z,13.43
2018-12-31T20:03:35.238Z,16.83
2018-12-31T20:06:04.131Z,21.07
2018-12-31T20:08:33.088Z,20.87
2018-12-31T20:11:01.997Z,24.98
2018-12-31T20:13:30.890Z,13.00
2018-12-31T20:15:59.757Z,24.53
2018-12-31T20:18:28.644Z,48.53
2018-12-31T20:20:57.480Z,31.40
2018-12-31T20:23:26.288Z,17.82
2018-12-31T20:25:55.176Z,21.17
2018-12-31T20:28:24.277Z,34.63
2018-12-31T20:30:53.085Z,28.10
2018-12-31T20:33:21.989Z,21.63
2018-12-31T20:35:50.806Z,18.10
2018-12-31T20:38:19.939Z,13.88
2018-12-31T20:40:48.837Z,30.83
2018-12-31T20:43:17.745Z,20.40
2018-12-31T20:45:46.637Z,23.70
2018-12-31T20:48:15.623Z,24.47
2018-12-31T20:50:44.452Z,26.83
2018-12-31T20:53:13.271Z,30.65
2018-12-31T20:55:42.076Z,42.40
2018-12-31T20:58:10.980Z,28.57
2018-12-31T21:00:39.783Z,30.23
2018-12-31T21:03:08.688Z,43.90
2018-12-31T21:05:37.636Z,88.63
2018-12-31T21:08:06.644Z,77.33
2018-12-31T21:10:35.567Z,42.03
2018-12-31T21:13:04.559Z,17.43
2018-12-31T21:15:33.359Z,16.40
2018-12-31T21:18:02.213Z,15.40
2018-12-31T21:20:31.124Z,22.55
2018-12-31T21:23:00.241Z,18.82
2018-12-31T21:25:29.124Z,22.73
2018-12-31T21:27:58.011Z,26.67
2018-12-31T21:30:26.931Z,15.50
2018-12-31T21:32:55.760Z,19.33
2018-12-31T21:35:25.042Z,21.40
2018-12-31T21:37:53.864Z,17.07
2018-12-31T21:40:22.837Z,20.35
2018-12-31T21:42:52.204Z,16.80
2018-12-31T21:45:22.208Z,21.70
2018-12-31T21:47:51.137Z,23.12
2018-12-31T21:50:19.942Z,20.80
2018-12-31T21:52:48.870Z,20.07
2018-12-31T21:55:17.825Z,20.20
2018-12-31T21:57:46.664Z,24.33
2018-12-31T22:02:40.041Z,38.40
2018-12-31T22:05:08.922Z,20.83
2018-12-31T22:07:37.878Z,21.30
2018-12-31T22:10:07.351Z,19.40
2018-12-31T22:12:36.287Z,51.27
2018-12-31T22:15:08.022Z,20.07
2018-12-31T22:17:37.045Z,19.17
2018-12-31T22:20:07.631Z,16.10
2018-12-31T22:22:36.459Z,17.87
2018-12-31T22:25:05.724Z,18.17
2018-12-31T22:27:34.969Z,18.15
2018-12-31T22:30:04.012Z,16.40
2018-12-31T22:32:32.820Z,14.93
2018-12-31T22:35:01.741Z,17.55
2018-12-31T22:37:30.797Z,13.75
2018-12-31T22:40:00.096Z,13.57
2018-12-31T22:42:29.048Z,17.83
2018-12-31T22:44:57.927Z,13.70
2018-12-31T22:47:26.759Z,18.03
2018-12-31T22:49:55.997Z,17.77
2018-12-31T22:52:24.809Z,23.03
2018-12-31T22:54:54.593Z,22.37
2018-12-31T22:57:23.414Z,22.95
2018-12-31T22:59:52.315Z,20.10
2018-12-31T23:02:21.143Z,25.50
2018-12-31T23:04:50.406Z,80.60
2018-12-31T23:07:19.306Z,108.60
2018-12-31T23:09:48.137Z,241.23
2018-12-31T23:12:16.955Z,336.07
2018-12-31T23:14:45.811Z,200.63
2018-12-31T23:17:16.805Z,183.73
2018-12-31T23:19:45.647Z,238.73
2018-12-31T23:22:14.516Z,218.13
2018-12-31T23:24:43.324Z,215.32
2018-12-31T23:27:12.596Z,223.17
2018-12-31T23:29:41.501Z,191.13
2018-12-31T23:32:10.341Z,155.30
2018-12-31T23:34:39.244Z,135.40
2018-12-31T23:37:08.136Z,173.87
2018-12-31T23:39:37.084Z,210.32
2018-12-31T23:42:05.987Z,154.47
2018-12-31T23:44:36.136Z,117.53
2018-12-31T23:47:04.998Z,77.80
2018-12-31T23:49:33.905Z,84.27
2018-12-31T23:52:02.736Z,95.83
2018-12-31T23:54:31.567Z,122.90
2018-12-31T23:57:00.767Z,127.67
2018-12-31T23:59:29.622Z,118.77
